sensor_id;sensor_type;location;lat;lon;timestamp;P1;durP1;ratioP1;P2;durP2;ratioP2
58697;SDS011;44475;53.206;-6.106;2023-07-02T00:01:50;6.13;;;2.72;;
58697;SDS011;44475;53.206;-6.106;2023-07-02T00:04:16;5.05;;;2.70;;
58697;SDS011;44475;53.206;-6.106;2023-07-02T00:06:45;5.50;;;2.80;;
58697;SDS011;44475;53.206;-6.106;2023-07-02T00:09:12;5.63;;;2.90;;
58697;SDS011;44475;53.206;-6.106;2023-07-02T00:11:39;5.07;;;2.75;;
58697;SDS011;44475;53.206;-6.106;2023-07-02T00:14:07;6.97;;;2.83;;
58697;SDS011;44475;53.206;-6.106;2023-07-02T00:16:44;5.95;;;2.83;;
58697;SDS011;44475;53.206;-6.106;2023-07-02T00:19:14;5.57;;;2.90;;
58697;SDS011;44475;53.206;-6.106;2023-07-02T00:21:41;6.13;;;2.85;;
58697;SDS011;44475;53.206;-6.106;2023-07-02T00:24:08;6.65;;;2.90;;
58697;SDS011;44475;53.206;-6.106;2023-07-02T00:26:35;6.40;;;3.13;;
58697;SDS011;44475;53.206;-6.106;2023-07-02T00:29:03;5.88;;;2.83;;
58697;SDS011;44475;53.206;-6.106;2023-07-02T00:31:31;5.80;;;2.78;;
58697;SDS011;44475;53.206;-6.106;2023-07-02T00:33:58;5.65;;;2.90;;
58697;SDS011;44475;53.206;-6.106;2023-07-02T00:36:28;5.80;;;2.90;;
58697;SDS011;44475;53.206;-6.106;2023-07-02T00:38:55;4.65;;;2.70;;
58697;SDS011;44475;53.206;-6.106;2023-07-02T00:41:21;6.13;;;2.90;;
58697;SDS011;44475;53.206;-6.106;2023-07-02T00:43:48;5.97;;;3.30;;
58697;SDS011;44475;53.206;-6.106;2023-07-02T00:46:15;6.63;;;2.92;;
58697;SDS011;44475;53.206;-6.106;2023-07-02T00:48:51;5.28;;;2.80;;
58697;SDS011;44475;53.206;-6.106;2023-07-02T00:51:20;6.15;;;2.75;;
58697;SDS011;44475;53.206;-6.106;2023-07-02T00:53:51;5.03;;;2.65;;
58697;SDS011;44475;53.206;-6.106;2023-07-02T00:56:20;6.50;;;2.58;;
58697;SDS011;44475;53.206;-6.106;2023-07-02T00:58:48;7.32;;;3.10;;
58697;SDS011;44475;53.206;-6.106;2023-07-02T01:01:19;5.70;;;2.72;;
58697;SDS011;44475;53.206;-6.106;2023-07-02T01:06:27;6.07;;;2.83;;
58697;SDS011;44475;53.206;-6.106;2023-07-02T01:08:59;5.15;;;2.70;;
58697;SDS011;44475;53.206;-6.106;2023-07-02T01:11:28;4.07;;;2.42;;
58697;SDS011;44475;53.206;-6.106;2023-07-02T01:14:14;5.72;;;2.70;;
58697;SDS011;44475;53.206;-6.106;2023-07-02T01:16:50;6.53;;;2.83;;
58697;SDS011;44475;53.206;-6.106;2023-07-02T01:19:21;5.90;;;2.80;;
58697;SDS011;44475;53.206;-6.106;2023-07-02T01:22:05;5.20;;;2.90;;
58697;SDS011;44475;53.206;-6.106;2023-07-02T01:24:34;6.70;;;2.60;;
58697;SDS011;44475;53.206;-6.106;2023-07-02T01:27:01;5.43;;;2.67;;
58697;SDS011;44475;53.206;-6.106;2023-07-02T01:29:29;4.88;;;2.60;;
58697;SDS011;44475;53.206;-6.106;2023-07-02T01:31:55;4.82;;;2.55;;
58697;SDS011;44475;53.206;-6.106;2023-07-02T01:34:22;5.35;;;2.75;;
58697;SDS011;44475;53.206;-6.106;2023-07-02T01:36:49;5.28;;;2.83;;
58697;SDS011;44475;53.206;-6.106;2023-07-02T01:39:16;6.70;;;3.10;;
58697;SDS011;44475;53.206;-6.106;2023-07-02T01:41:44;5.63;;;2.65;;
58697;SDS011;44475;53.206;-6.106;2023-07-02T01:44:15;5.28;;;2.60;;
58697;SDS011;44475;53.206;-6.106;2023-07-02T01:46:42;4.97;;;2.90;;
58697;SDS011;44475;53.206;-6.106;2023-07-02T01:49:09;5.80;;;2.83;;
58697;SDS011;44475;53.206;-6.106;2023-07-02T01:51:35;4.63;;;2.70;;
58697;SDS011;44475;53.206;-6.106;2023-07-02T01:54:03;5.45;;;2.75;;
58697;SDS011;44475;53.206;-6.106;2023-07-02T01:56:29;5.15;;;2.85;;
58697;SDS011;44475;53.206;-6.106;2023-07-02T01:58:56;5.35;;;2.40;;
58697;SDS011;44475;53.206;-6.106;2023-07-02T02:01:23;5.07;;;2.70;;
58697;SDS011;44475;53.206;-6.106;2023-07-02T02:03:49;4.60;;;2.67;;
58697;SDS011;44475;53.206;-6.106;2023-07-02T02:06:16;5.75;;;2.70;;
58697;SDS011;44475;53.206;-6.106;2023-07-02T02:08:42;5.20;;;2.65;;
58697;SDS011;44475;53.206;-6.106;2023-07-02T02:11:09;5.10;;;2.60;;
58697;SDS011;44475;53.206;-6.106;2023-07-02T02:13:36;4.97;;;2.80;;
58697;SDS011;44475;53.206;-6.106;2023-07-02T02:16:02;6.68;;;2.70;;
58697;SDS011;44475;53.206;-6.106;2023-07-02T02:18:28;5.95;;;2.80;;
58697;SDS011;44475;53.206;-6.106;2023-07-02T02:20:54;5.60;;;2.45;;
58697;SDS011;44475;53.206;-6.106;2023-07-02T02:23:20;6.75;;;2.85;;
58697;SDS011;44475;53.206;-6.106;2023-07-02T02:25:47;6.20;;;2.60;;
58697;SDS011;44475;53.206;-6.106;2023-07-02T02:28:13;4.35;;;2.42;;
58697;SDS011;44475;53.206;-6.106;2023-07-02T02:30:39;5.22;;;2.70;;
58697;SDS011;44475;53.206;-6.106;2023-07-02T02:33:06;5.28;;;2.70;;
58697;SDS011;44475;53.206;-6.106;2023-07-02T02:35:33;5.68;;;2.70;;
58697;SDS011;44475;53.206;-6.106;2023-07-02T02:38:00;5.57;;;2.70;;
58697;SDS011;44475;53.206;-6.106;2023-07-02T02:40:28;5.05;;;2.47;;
58697;SDS011;44475;53.206;-6.106;2023-07-02T02:42:55;3.97;;;2.42;;
58697;SDS011;44475;53.206;-6.106;2023-07-02T02:45:22;5.13;;;2.50;;
58697;SDS011;44475;53.206;-6.106;2023-07-02T02:47:48;4.72;;;2.40;;
58697;SDS011;44475;53.206;-6.106;2023-07-02T02:50:14;5.68;;;2.60;;
58697;SDS011;44475;53.206;-6.106;2023-07-02T02:52:41;4.82;;;2.35;;
58697;SDS011;44475;53.206;-6.106;2023-07-02T02:55:09;5.18;;;2.50;;
58697;SDS011;44475;53.206;-6.106;2023-07-02T02:57:37;4.68;;;2.50;;
58697;SDS011;44475;53.206;-6.106;2023-07-02T03:00:03;6.43;;;2.50;;
58697;SDS011;44475;53.206;-6.106;2023-07-02T03:02:31;4.75;;;2.60;;
58697;SDS011;44475;53.206;-6.106;2023-07-02T03:04:58;5.65;;;2.47;;
58697;SDS011;44475;53.206;-6.106;2023-07-02T03:07:27;5.10;;;2.30;;
58697;SDS011;44475;53.206;-6.106;2023-07-02T03:09:54;6.60;;;2.60;;
58697;SDS011;44475;53.206;-6.106;2023-07-02T03:12:21;5.38;;;2.42;;
58697;SDS011;44475;53.206;-6.106;2023-07-02T03:14:47;5.00;;;2.45;;
58697;SDS011;44475;53.206;-6.106;2023-07-02T03:17:18;6.45;;;2.47;;
58697;SDS011;44475;53.206;-6.106;2023-07-02T03:19:48;4.45;;;2.42;;
58697;SDS011;44475;53.206;-6.106;2023-07-02T03:22:14;5.78;;;2.42;;
58697;SDS011;44475;53.206;-6.106;2023-07-02T03:24:41;6.65;;;2.38;;
58697;SDS011;44475;53.206;-6.106;2023-07-02T03:27:07;5.25;;;2.35;;
58697;SDS011;44475;53.206;-6.106;2023-07-02T03:29:33;5.00;;;2.53;;
58697;SDS011;44475;53.206;-6.106;2023-07-02T03:32:03;4.63;;;2.40;;
58697;SDS011;44475;53.206;-6.106;2023-07-02T03:34:30;4.35;;;2.15;;
58697;SDS011;44475;53.206;-6.106;2023-07-02T03:36:56;5.93;;;2.53;;
58697;SDS011;44475;53.206;-6.106;2023-07-02T03:39:22;5.40;;;2.33;;
58697;SDS011;44475;53.206;-6.106;2023-07-02T03:41:49;4.93;;;2.38;;
58697;SDS011;44475;53.206;-6.106;2023-07-02T03:44:15;4.68;;;2.50;;
58697;SDS011;44475;53.206;-6.106;2023-07-02T03:46:41;4.15;;;2.20;;
58697;SDS011;44475;53.206;-6.106;2023-07-02T03:49:08;5.18;;;2.35;;
58697;SDS011;44475;53.206;-6.106;2023-07-02T03:51:34;4.57;;;2.40;;
58697;SDS011;44475;53.206;-6.106;2023-07-02T03:54:00;5.63;;;2.30;;
58697;SDS011;44475;53.206;-6.106;2023-07-02T03:56:27;4.90;;;2.40;;
58697;SDS011;44475;53.206;-6.106;2023-07-02T03:58:53;5.55;;;2.53;;
58697;SDS011;44475;53.206;-6.106;2023-07-02T04:01:19;4.28;;;2.15;;
58697;SDS011;44475;53.206;-6.106;2023-07-02T04:03:49;5.18;;;2.30;;
58697;SDS011;44475;53.206;-6.106;2023-07-02T04:06:17;5.22;;;2.58;;
58697;SDS011;44475;53.206;-6.106;2023-07-02T04:08:44;3.95;;;2.10;;
58697;SDS011;44475;53.206;-6.106;2023-07-02T04:11:11;4.43;;;2.28;;
58697;SDS011;44475;53.206;-6.106;2023-07-02T04:13:38;5.10;;;2.28;;
58697;SDS011;44475;53.206;-6.106;2023-07-02T04:16:05;4.93;;;2.40;;
58697;SDS011;44475;53.206;-6.106;2023-07-02T04:18:32;4.95;;;2.15;;
58697;SDS011;44475;53.206;-6.106;2023-07-02T04:20:58;4.28;;;2.30;;
58697;SDS011;44475;53.206;-6.106;2023-07-02T04:23:25;5.40;;;2.28;;
58697;SDS011;44475;53.206;-6.106;2023-07-02T04:25:51;4.45;;;2.20;;
58697;SDS011;44475;53.206;-6.106;2023-07-02T04:28:18;4.75;;;2.35;;
58697;SDS011;44475;53.206;-6.106;2023-07-02T04:30:44;5.05;;;2.10;;
58697;SDS011;44475;53.206;-6.106;2023-07-02T04:33:14;4.90;;;2.45;;
58697;SDS011;44475;53.206;-6.106;2023-07-02T04:35:41;3.65;;;2.03;;
58697;SDS011;44475;53.206;-6.106;2023-07-02T04:38:08;3.92;;;1.98;;
58697;SDS011;44475;53.206;-6.106;2023-07-02T04:40:34;5.63;;;2.40;;
58697;SDS011;44475;53.206;-6.106;2023-07-02T04:43:00;5.68;;;2.30;;
58697;SDS011;44475;53.206;-6.106;2023-07-02T04:45:29;5.30;;;2.45;;
58697;SDS011;44475;53.206;-6.106;2023-07-02T04:47:57;4.68;;;2.25;;
58697;SDS011;44475;53.206;-6.106;2023-07-02T04:50:25;5.00;;;2.28;;
58697;SDS011;44475;53.206;-6.106;2023-07-02T04:52:52;4.60;;;2.22;;
58697;SDS011;44475;53.206;-6.106;2023-07-02T04:55:18;4.30;;;2.20;;
58697;SDS011;44475;53.206;-6.106;2023-07-02T04:57:44;6.00;;;2.45;;
58697;SDS011;44475;53.206;-6.106;2023-07-02T05:00:11;5.50;;;2.20;;
58697;SDS011;44475;53.206;-6.106;2023-07-02T05:02:38;4.18;;;2.17;;
58697;SDS011;44475;53.206;-6.106;2023-07-02T05:05:04;5.28;;;2.15;;
58697;SDS011;44475;53.206;-6.106;2023-07-02T05:07:31;4.93;;;2.15;;
58697;SDS011;44475;53.206;-6.106;2023-07-02T05:09:58;4.25;;;1.92;;
58697;SDS011;44475;53.206;-6.106;2023-07-02T05:12:24;4.28;;;2.08;;
58697;SDS011;44475;53.206;-6.106;2023-07-02T05:14:50;5.15;;;2.20;;
58697;SDS011;44475;53.206;-6.106;2023-07-02T05:17:17;5.03;;;2.10;;
58697;SDS011;44475;53.206;-6.106;2023-07-02T05:19:43;4.18;;;2.05;;
58697;SDS011;44475;53.206;-6.106;2023-07-02T05:22:09;4.65;;;2.10;;
58697;SDS011;44475;53.206;-6.106;2023-07-02T05:24:35;4.90;;;2.45;;
58697;SDS011;44475;53.206;-6.106;2023-07-02T05:27:02;3.55;;;2.08;;
58697;SDS011;44475;53.206;-6.106;2023-07-02T05:29:29;4.38;;;2.10;;
58697;SDS011;44475;53.206;-6.106;2023-07-02T05:31:55;6.75;;;2.20;;
58697;SDS011;44475;53.206;-6.106;2023-07-02T05:34:22;5.82;;;2.13;;
58697;SDS011;44475;53.206;-6.106;2023-07-02T05:36:48;4.00;;;2.00;;
58697;SDS011;44475;53.206;-6.106;2023-07-02T05:39:14;5.95;;;2.10;;
58697;SDS011;44475;53.206;-6.106;2023-07-02T05:41:40;5.88;;;2.05;;
58697;SDS011;44475;53.206;-6.106;2023-07-02T05:44:07;5.53;;;2.10;;
58697;SDS011;44475;53.206;-6.106;2023-07-02T05:46:33;4.90;;;2.05;;
58697;SDS011;44475;53.206;-6.106;2023-07-02T05:48:59;4.30;;;1.98;;
58697;SDS011;44475;53.206;-6.106;2023-07-02T05:51:25;4.32;;;2.03;;
58697;SDS011;44475;53.206;-6.106;2023-07-02T05:53:52;4.28;;;1.90;;
58697;SDS011;44475;53.206;-6.106;2023-07-02T05:56:18;4.28;;;2.03;;
58697;SDS011;44475;53.206;-6.106;2023-07-02T05:58:45;3.60;;;1.95;;
58697;SDS011;44475;53.206;-6.106;2023-07-02T06:01:12;6.53;;;2.15;;
58697;SDS011;44475;53.206;-6.106;2023-07-02T06:03:39;3.10;;;1.85;;
58697;SDS011;44475;53.206;-6.106;2023-07-02T06:06:05;4.28;;;2.17;;
58697;SDS011;44475;53.206;-6.106;2023-07-02T06:08:31;6.35;;;2.13;;
58697;SDS011;44475;53.206;-6.106;2023-07-02T06:10:58;5.03;;;2.15;;
58697;SDS011;44475;53.206;-6.106;2023-07-02T06:13:24;4.30;;;2.05;;
58697;SDS011;44475;53.206;-6.106;2023-07-02T06:15:50;4.97;;;2.00;;
58697;SDS011;44475;53.206;-6.106;2023-07-02T06:18:17;5.00;;;2.15;;
58697;SDS011;44475;53.206;-6.106;2023-07-02T06:20:43;4.20;;;1.92;;
58697;SDS011;44475;53.206;-6.106;2023-07-02T06:23:09;5.38;;;2.17;;
58697;SDS011;44475;53.206;-6.106;2023-07-02T06:25:35;6.90;;;2.40;;
58697;SDS011;44475;53.206;-6.106;2023-07-02T06:28:02;5.03;;;1.90;;
58697;SDS011;44475;53.206;-6.106;2023-07-02T06:30:28;4.78;;;1.83;;
58697;SDS011;44475;53.206;-6.106;2023-07-02T06:32:54;5.63;;;2.20;;
58697;SDS011;44475;53.206;-6.106;2023-07-02T06:35:21;4.88;;;2.05;;
58697;SDS011;44475;53.206;-6.106;2023-07-02T06:37:47;4.97;;;2.03;;
58697;SDS011;44475;53.206;-6.106;2023-07-02T06:40:14;4.07;;;2.00;;
58697;SDS011;44475;53.206;-6.106;2023-07-02T06:42:40;3.97;;;1.90;;
58697;SDS011;44475;53.206;-6.106;2023-07-02T06:45:06;3.50;;;1.90;;
58697;SDS011;44475;53.206;-6.106;2023-07-02T06:47:33;3.60;;;2.00;;
58697;SDS011;44475;53.206;-6.106;2023-07-02T06:49:59;5.13;;;1.98;;
58697;SDS011;44475;53.206;-6.106;2023-07-02T06:52:25;4.45;;;1.80;;
58697;SDS011;44475;53.206;-6.106;2023-07-02T06:54:52;3.67;;;2.00;;
58697;SDS011;44475;53.206;-6.106;2023-07-02T06:57:18;3.72;;;1.80;;
58697;SDS011;44475;53.206;-6.106;2023-07-02T06:59:45;3.97;;;1.75;;
58697;SDS011;44475;53.206;-6.106;2023-07-02T07:02:11;4.20;;;1.92;;
58697;SDS011;44475;53.206;-6.106;2023-07-02T07:04:37;4.65;;;2.10;;
58697;SDS011;44475;53.206;-6.106;2023-07-02T07:07:03;3.95;;;1.90;;
58697;SDS011;44475;53.206;-6.106;2023-07-02T07:09:30;5.38;;;1.92;;
58697;SDS011;44475;53.206;-6.106;2023-07-02T07:11:56;3.75;;;1.85;;
58697;SDS011;44475;53.206;-6.106;2023-07-02T07:14:22;4.57;;;1.85;;
58697;SDS011;44475;53.206;-6.106;2023-07-02T07:16:49;4.47;;;1.80;;
58697;SDS011;44475;53.206;-6.106;2023-07-02T07:19:16;4.30;;;1.73;;
58697;SDS011;44475;53.206;-6.106;2023-07-02T07:21:42;3.63;;;1.83;;
58697;SDS011;44475;53.206;-6.106;2023-07-02T07:24:08;3.15;;;1.75;;
58697;SDS011;44475;53.206;-6.106;2023-07-02T07:26:35;3.28;;;1.90;;
58697;SDS011;44475;53.206;-6.106;2023-07-02T07:29:01;3.78;;;1.98;;
58697;SDS011;44475;53.206;-6.106;2023-07-02T07:31:28;4.15;;;1.73;;
58697;SDS011;44475;53.206;-6.106;2023-07-02T07:33:54;4.35;;;1.90;;
58697;SDS011;44475;53.206;-6.106;2023-07-02T07:36:21;3.75;;;1.77;;
58697;SDS011;44475;53.206;-6.106;2023-07-02T07:38:47;3.50;;;1.70;;
58697;SDS011;44475;53.206;-6.106;2023-07-02T07:41:13;4.53;;;1.80;;
58697;SDS011;44475;53.206;-6.106;2023-07-02T07:43:40;4.97;;;1.80;;
58697;SDS011;44475;53.206;-6.106;2023-07-02T07:46:06;2.88;;;1.73;;
58697;SDS011;44475;53.206;-6.106;2023-07-02T07:48:32;4.28;;;2.00;;
58697;SDS011;44475;53.206;-6.106;2023-07-02T07:50:58;2.80;;;1.85;;
58697;SDS011;44475;53.206;-6.106;2023-07-02T07:53:25;3.17;;;1.88;;
58697;SDS011;44475;53.206;-6.106;2023-07-02T07:55:51;4.97;;;1.73;;
58697;SDS011;44475;53.206;-6.106;2023-07-02T07:58:17;4.75;;;2.00;;
58697;SDS011;44475;53.206;-6.106;2023-07-02T08:00:44;3.40;;;1.75;;
58697;SDS011;44475;53.206;-6.106;2023-07-02T08:03:10;2.78;;;1.65;;
58697;SDS011;44475;53.206;-6.106;2023-07-02T08:05:36;4.95;;;2.00;;
58697;SDS011;44475;53.206;-6.106;2023-07-02T08:08:02;2.90;;;1.80;;
58697;SDS011;44475;53.206;-6.106;2023-07-02T08:10:29;4.20;;;1.80;;
58697;SDS011;44475;53.206;-6.106;2023-07-02T08:12:55;6.72;;;1.95;;
58697;SDS011;44475;53.206;-6.106;2023-07-02T08:15:21;3.88;;;1.80;;
58697;SDS011;44475;53.206;-6.106;2023-07-02T08:17:48;4.47;;;1.92;;
58697;SDS011;44475;53.206;-6.106;2023-07-02T08:20:16;4.03;;;1.80;;
58697;SDS011;44475;53.206;-6.106;2023-07-02T08:22:43;4.82;;;1.83;;
58697;SDS011;44475;53.206;-6.106;2023-07-02T08:25:09;3.50;;;1.70;;
58697;SDS011;44475;53.206;-6.106;2023-07-02T08:27:35;3.17;;;1.83;;
58697;SDS011;44475;53.206;-6.106;2023-07-02T08:30:01;4.18;;;1.90;;
58697;SDS011;44475;53.206;-6.106;2023-07-02T08:32:28;3.92;;;1.80;;
58697;SDS011;44475;53.206;-6.106;2023-07-02T08:34:54;3.13;;;1.83;;
58697;SDS011;44475;53.206;-6.106;2023-07-02T08:37:20;3.95;;;1.90;;
58697;SDS011;44475;53.206;-6.106;2023-07-02T08:39:48;4.65;;;1.83;;
58697;SDS011;44475;53.206;-6.106;2023-07-02T08:42:15;4.47;;;1.73;;
58697;SDS011;44475;53.206;-6.106;2023-07-02T08:44:42;5.18;;;1.88;;
58697;SDS011;44475;53.206;-6.106;2023-07-02T08:47:12;4.55;;;1.80;;
58697;SDS011;44475;53.206;-6.106;2023-07-02T08:49:39;4.20;;;1.88;;
58697;SDS011;44475;53.206;-6.106;2023-07-02T08:52:06;4.35;;;1.80;;
58697;SDS011;44475;53.206;-6.106;2023-07-02T08:54:33;3.47;;;1.73;;
58697;SDS011;44475;53.206;-6.106;2023-07-02T08:56:59;4.30;;;1.70;;
58697;SDS011;44475;53.206;-6.106;2023-07-02T08:59:30;3.22;;;1.67;;
58697;SDS011;44475;53.206;-6.106;2023-07-02T09:01:56;3.83;;;1.77;;
58697;SDS011;44475;53.206;-6.106;2023-07-02T09:04:23;2.63;;;1.50;;
58697;SDS011;44475;53.206;-6.106;2023-07-02T09:06:51;3.00;;;1.70;;
58697;SDS011;44475;53.206;-6.106;2023-07-02T09:09:49;5.03;;;1.80;;
58697;SDS011;44475;53.206;-6.106;2023-07-02T09:12:29;3.10;;;1.55;;
58697;SDS011;44475;53.206;-6.106;2023-07-02T09:14:57;5.28;;;1.70;;
58697;SDS011;44475;53.206;-6.106;2023-07-02T09:17:35;4.57;;;1.67;;
58697;SDS011;44475;53.206;-6.106;2023-07-02T09:20:03;2.75;;;1.67;;
58697;SDS011;44475;53.206;-6.106;2023-07-02T09:22:32;3.13;;;1.80;;
58697;SDS011;44475;53.206;-6.106;2023-07-02T09:25:00;5.47;;;1.70;;
58697;SDS011;44475;53.206;-6.106;2023-07-02T09:27:40;3.58;;;1.70;;
58697;SDS011;44475;53.206;-6.106;2023-07-02T09:32:39;4.15;;;2.10;;
58697;SDS011;44475;53.206;-6.106;2023-07-02T09:35:06;4.10;;;1.80;;
58697;SDS011;44475;53.206;-6.106;2023-07-02T09:37:32;3.05;;;1.70;;
58697;SDS011;44475;53.206;-6.106;2023-07-02T09:39:58;4.00;;;1.70;;
58697;SDS011;44475;53.206;-6.106;2023-07-02T09:42:26;4.25;;;1.88;;
58697;SDS011;44475;53.206;-6.106;2023-07-02T09:44:56;3.03;;;1.70;;
58697;SDS011;44475;53.206;-6.106;2023-07-02T09:47:24;4.00;;;1.85;;
58697;SDS011;44475;53.206;-6.106;2023-07-02T09:49:53;3.75;;;1.73;;
58697;SDS011;44475;53.206;-6.106;2023-07-02T09:52:23;3.22;;;1.67;;
58697;SDS011;44475;53.206;-6.106;2023-07-02T09:54:49;3.95;;;1.70;;
58697;SDS011;44475;53.206;-6.106;2023-07-02T09:57:16;3.97;;;1.90;;
58697;SDS011;44475;53.206;-6.106;2023-07-02T09:59:42;3.45;;;1.70;;
58697;SDS011;44475;53.206;-6.106;2023-07-02T10:02:09;4.05;;;1.80;;
58697;SDS011;44475;53.206;-6.106;2023-07-02T10:04:42;4.32;;;1.80;;
58697;SDS011;44475;53.206;-6.106;2023-07-02T10:07:25;3.65;;;1.63;;
58697;SDS011;44475;53.206;-6.106;2023-07-02T10:09:55;2.80;;;1.60;;
58697;SDS011;44475;53.206;-6.106;2023-07-02T10:12:22;4.57;;;1.77;;
58697;SDS011;44475;53.206;-6.106;2023-07-02T10:14:50;4.47;;;1.60;;
58697;SDS011;44475;53.206;-6.106;2023-07-02T10:19:50;4.63;;;1.80;;
58697;SDS011;44475;53.206;-6.106;2023-07-02T10:22:17;3.80;;;1.77;;
58697;SDS011;44475;53.206;-6.106;2023-07-02T10:24:57;4.93;;;1.70;;
58697;SDS011;44475;53.206;-6.106;2023-07-02T10:27:38;4.43;;;1.88;;
58697;SDS011;44475;53.206;-6.106;2023-07-02T10:30:06;3.45;;;1.70;;
58697;SDS011;44475;53.206;-6.106;2023-07-02T10:32:34;3.60;;;1.60;;
58697;SDS011;44475;53.206;-6.106;2023-07-02T10:35:01;2.75;;;1.50;;
58697;SDS011;44475;53.206;-6.106;2023-07-02T10:37:38;4.32;;;1.63;;
58697;SDS011;44475;53.206;-6.106;2023-07-02T10:40:07;3.25;;;1.63;;
58697;SDS011;44475;53.206;-6.106;2023-07-02T10:45:32;3.05;;;1.55;;
58697;SDS011;44475;53.206;-6.106;2023-07-02T10:48:03;3.30;;;1.42;;
58697;SDS011;44475;53.206;-6.106;2023-07-02T10:50:33;3.35;;;1.65;;
58697;SDS011;44475;53.206;-6.106;2023-07-02T10:53:00;3.25;;;1.50;;
58697;SDS011;44475;53.206;-6.106;2023-07-02T10:55:26;3.30;;;1.60;;
58697;SDS011;44475;53.206;-6.106;2023-07-02T10:58:09;2.45;;;1.50;;
58697;SDS011;44475;53.206;-6.106;2023-07-02T11:00:45;3.78;;;1.63;;
58697;SDS011;44475;53.206;-6.106;2023-07-02T11:03:24;2.83;;;1.70;;
58697;SDS011;44475;53.206;-6.106;2023-07-02T11:05:52;2.25;;;1.40;;
58697;SDS011;44475;53.206;-6.106;2023-07-02T11:08:18;2.97;;;1.50;;
58697;SDS011;44475;53.206;-6.106;2023-07-02T11:10:46;2.95;;;1.60;;
58697;SDS011;44475;53.206;-6.106;2023-07-02T11:13:13;2.70;;;1.50;;
58697;SDS011;44475;53.206;-6.106;2023-07-02T11:15:40;2.25;;;1.40;;
58697;SDS011;44475;53.206;-6.106;2023-07-02T11:20:38;2.67;;;1.60;;
58697;SDS011;44475;53.206;-6.106;2023-07-02T11:23:16;2.72;;;1.38;;
58697;SDS011;44475;53.206;-6.106;2023-07-02T11:25:53;3.67;;;1.73;;
58697;SDS011;44475;53.206;-6.106;2023-07-02T11:28:24;3.38;;;1.60;;
58697;SDS011;44475;53.206;-6.106;2023-07-02T11:30:51;2.28;;;1.30;;
58697;SDS011;44475;53.206;-6.106;2023-07-02T11:33:17;4.10;;;1.50;;
58697;SDS011;44475;53.206;-6.106;2023-07-02T11:35:44;3.55;;;1.70;;
58697;SDS011;44475;53.206;-6.106;2023-07-02T11:38:10;2.92;;;1.65;;
58697;SDS011;44475;53.206;-6.106;2023-07-02T11:40:36;2.88;;;1.70;;
58697;SDS011;44475;53.206;-6.106;2023-07-02T11:43:03;4.15;;;1.70;;
58697;SDS011;44475;53.206;-6.106;2023-07-02T11:45:31;3.08;;;1.52;;
58697;SDS011;44475;53.206;-6.106;2023-07-02T11:47:57;1.92;;;1.42;;
58697;SDS011;44475;53.206;-6.106;2023-07-02T11:50:23;3.38;;;1.45;;
58697;SDS011;44475;53.206;-6.106;2023-07-02T11:52:49;3.70;;;1.63;;
58697;SDS011;44475;53.206;-6.106;2023-07-02T11:55:16;3.00;;;1.60;;
58697;SDS011;44475;53.206;-6.106;2023-07-02T11:57:42;2.78;;;1.50;;
58697;SDS011;44475;53.206;-6.106;2023-07-02T12:00:08;3.65;;;1.65;;
58697;SDS011;44475;53.206;-6.106;2023-07-02T12:02:35;2.85;;;1.40;;
58697;SDS011;44475;53.206;-6.106;2023-07-02T12:05:01;1.23;;;1.13;;
58697;SDS011;44475;53.206;-6.106;2023-07-02T12:07:28;3.38;;;1.67;;
58697;SDS011;44475;53.206;-6.106;2023-07-02T12:09:54;3.95;;;1.50;;
58697;SDS011;44475;53.206;-6.106;2023-07-02T12:12:21;2.42;;;1.40;;
58697;SDS011;44475;53.206;-6.106;2023-07-02T12:14:47;3.28;;;1.50;;
58697;SDS011;44475;53.206;-6.106;2023-07-02T12:17:13;2.72;;;1.55;;
58697;SDS011;44475;53.206;-6.106;2023-07-02T12:19:40;2.92;;;1.48;;
58697;SDS011;44475;53.206;-6.106;2023-07-02T12:22:06;3.33;;;1.60;;
58697;SDS011;44475;53.206;-6.106;2023-07-02T12:24:33;3.10;;;1.50;;
58697;SDS011;44475;53.206;-6.106;2023-07-02T12:26:59;2.55;;;1.30;;
58697;SDS011;44475;53.206;-6.106;2023-07-02T12:29:25;4.00;;;1.40;;
58697;SDS011;44475;53.206;-6.106;2023-07-02T12:31:52;2.03;;;1.40;;
58697;SDS011;44475;53.206;-6.106;2023-07-02T12:34:18;2.92;;;1.40;;
58697;SDS011;44475;53.206;-6.106;2023-07-02T12:36:44;3.00;;;1.38;;
58697;SDS011;44475;53.206;-6.106;2023-07-02T12:39:10;2.10;;;1.40;;
58697;SDS011;44475;53.206;-6.106;2023-07-02T12:41:37;3.38;;;1.50;;
58697;SDS011;44475;53.206;-6.106;2023-07-02T12:44:03;2.92;;;1.42;;
58697;SDS011;44475;53.206;-6.106;2023-07-02T12:46:29;2.95;;;1.48;;
58697;SDS011;44475;53.206;-6.106;2023-07-02T12:48:55;3.20;;;1.60;;
58697;SDS011;44475;53.206;-6.106;2023-07-02T12:51:22;2.22;;;1.40;;
58697;SDS011;44475;53.206;-6.106;2023-07-02T12:53:48;2.75;;;1.50;;
58697;SDS011;44475;53.206;-6.106;2023-07-02T12:56:14;2.30;;;1.38;;
58697;SDS011;44475;53.206;-6.106;2023-07-02T12:58:41;3.05;;;1.38;;
58697;SDS011;44475;53.206;-6.106;2023-07-02T13:01:07;4.32;;;1.48;;
58697;SDS011;44475;53.206;-6.106;2023-07-02T13:03:34;2.47;;;1.40;;
58697;SDS011;44475;53.206;-6.106;2023-07-02T13:06:00;2.42;;;1.30;;
58697;SDS011;44475;53.206;-6.106;2023-07-02T13:08:26;2.40;;;1.35;;
58697;SDS011;44475;53.206;-6.106;2023-07-02T13:10:53;2.13;;;1.30;;
58697;SDS011;44475;53.206;-6.106;2023-07-02T13:13:19;3.58;;;1.45;;
58697;SDS011;44475;53.206;-6.106;2023-07-02T13:15:45;2.28;;;1.30;;
58697;SDS011;44475;53.206;-6.106;2023-07-02T13:18:11;2.03;;;1.35;;
58697;SDS011;44475;53.206;-6.106;2023-07-02T13:20:37;2.85;;;1.40;;
58697;SDS011;44475;53.206;-6.106;2023-07-02T13:23:04;1.92;;;1.25;;
58697;SDS011;44475;53.206;-6.106;2023-07-02T13:25:30;1.92;;;1.30;;
58697;SDS011;44475;53.206;-6.106;2023-07-02T13:27:56;1.35;;;1.13;;
58697;SDS011;44475;53.206;-6.106;2023-07-02T13:30:22;3.13;;;1.50;;
58697;SDS011;44475;53.206;-6.106;2023-07-02T13:32:49;2.70;;;1.50;;
58697;SDS011;44475;53.206;-6.106;2023-07-02T13:35:15;2.30;;;1.30;;
58697;SDS011;44475;53.206;-6.106;2023-07-02T13:37:41;1.60;;;1.20;;
58697;SDS011;44475;53.206;-6.106;2023-07-02T13:40:08;2.67;;;1.42;;
58697;SDS011;44475;53.206;-6.106;2023-07-02T13:42:37;2.22;;;1.40;;
58697;SDS011;44475;53.206;-6.106;2023-07-02T13:45:04;2.25;;;1.20;;
58697;SDS011;44475;53.206;-6.106;2023-07-02T13:47:31;2.55;;;1.48;;
58697;SDS011;44475;53.206;-6.106;2023-07-02T13:49:57;2.63;;;1.40;;
58697;SDS011;44475;53.206;-6.106;2023-07-02T13:52:23;2.67;;;1.40;;
58697;SDS011;44475;53.206;-6.106;2023-07-02T13:54:50;2.38;;;1.40;;
58697;SDS011;44475;53.206;-6.106;2023-07-02T13:57:16;2.60;;;1.38;;
58697;SDS011;44475;53.206;-6.106;2023-07-02T13:59:42;3.65;;;1.50;;
58697;SDS011;44475;53.206;-6.106;2023-07-02T14:02:08;1.50;;;1.20;;
58697;SDS011;44475;53.206;-6.106;2023-07-02T14:04:35;3.08;;;1.40;;
58697;SDS011;44475;53.206;-6.106;2023-07-02T14:07:02;3.53;;;1.52;;
58697;SDS011;44475;53.206;-6.106;2023-07-02T14:09:29;2.80;;;1.27;;
58697;SDS011;44475;53.206;-6.106;2023-07-02T14:11:56;1.95;;;1.33;;
58697;SDS011;44475;53.206;-6.106;2023-07-02T14:14:22;2.17;;;1.45;;
58697;SDS011;44475;53.206;-6.106;2023-07-02T14:16:48;3.30;;;1.45;;
58697;SDS011;44475;53.206;-6.106;2023-07-02T14:19:14;3.83;;;1.50;;
58697;SDS011;44475;53.206;-6.106;2023-07-02T14:21:42;2.70;;;1.35;;
58697;SDS011;44475;53.206;-6.106;2023-07-02T14:24:09;2.17;;;1.30;;
58697;SDS011;44475;53.206;-6.106;2023-07-02T14:26:35;3.65;;;1.48;;
58697;SDS011;44475;53.206;-6.106;2023-07-02T14:29:02;3.00;;;1.40;;
58697;SDS011;44475;53.206;-6.106;2023-07-02T14:31:28;2.40;;;1.20;;
58697;SDS011;44475;53.206;-6.106;2023-07-02T14:33:54;2.08;;;1.23;;
58697;SDS011;44475;53.206;-6.106;2023-07-02T14:36:21;3.25;;;1.38;;
58697;SDS011;44475;53.206;-6.106;2023-07-02T14:38:47;2.55;;;1.38;;
58697;SDS011;44475;53.206;-6.106;2023-07-02T14:41:13;2.22;;;1.40;;
58697;SDS011;44475;53.206;-6.106;2023-07-02T14:43:39;2.00;;;1.40;;
58697;SDS011;44475;53.206;-6.106;2023-07-02T14:46:06;1.73;;;1.20;;
58697;SDS011;44475;53.206;-6.106;2023-07-02T14:48:32;3.72;;;1.40;;